createdAt,value
2018-10-17T00:00:12.814Z,35.37
2018-10-17T00:02:42.709Z,30.90
2018-10-17T00:05:11.851Z,39.10
2018-10-17T00:07:41.607Z,37.93
2018-10-17T00:10:11.594Z,27.67
2018-10-17T00:12:41.521Z,34.00
2018-10-17T00:15:11.219Z,33.50
2018-10-17T00:17:40.319Z,34.13
2018-10-17T00:20:10.125Z,34.07
2018-10-17T00:22:39.246Z,28.63
2018-10-17T00:25:08.489Z,37.03
2018-10-17T00:27:37.706Z,32.40
2018-10-17T00:30:09.615Z,32.77
2018-10-17T00:32:38.727Z,29.90
2018-10-17T00:35:08.319Z,31.23
2018-10-17T00:37:37.498Z,32.53
2018-10-17T00:40:06.868Z,33.30
2018-10-17T00:42:35.990Z,33.43
2018-10-17T00:45:05.781Z,33.23
2018-10-17T00:47:34.876Z,38.03
2018-10-17T00:50:03.949Z,35.87
2018-10-17T00:52:33.094Z,34.97
2018-10-17T00:55:02.295Z,32.17
2018-10-17T00:57:31.277Z,29.67
2018-10-17T01:00:00.291Z,31.27
2018-10-17T01:02:29.298Z,29.37
2018-10-17T01:04:58.379Z,29.43
2018-10-17T01:07:27.570Z,30.77
2018-10-17T01:09:56.633Z,34.27
2018-10-17T01:12:25.801Z,33.43
2018-10-17T01:14:54.787Z,33.70
2018-10-17T01:17:23.845Z,32.07
2018-10-17T01:19:52.792Z,37.70
2018-10-17T01:22:23.148Z,28.23
2018-10-17T01:24:52.184Z,30.67
2018-10-17T01:27:21.145Z,27.23
2018-10-17T01:29:50.133Z,28.77
2018-10-17T01:32:19.138Z,31.90
2018-10-17T01:34:48.093Z,40.07
2018-10-17T01:37:17.232Z,30.07
2018-10-17T01:39:46.411Z,37.83
2018-10-17T01:42:15.397Z,33.00
2018-10-17T01:44:44.593Z,36.63
2018-10-17T01:47:14.097Z,32.97
2018-10-17T01:49:44.600Z,36.00
2018-10-17T01:52:13.625Z,33.50
2018-10-17T01:54:42.638Z,38.67
2018-10-17T01:57:11.823Z,35.30
2018-10-17T01:59:40.864Z,41.43
2018-10-17T02:02:10.205Z,36.40
2018-10-17T02:04:39.233Z,39.80
2018-10-17T02:07:08.279Z,37.30
2018-10-17T02:09:37.245Z,37.20
2018-10-17T02:12:06.546Z,34.70
2018-10-17T02:14:35.578Z,39.53
2018-10-17T02:17:04.684Z,34.90
2018-10-17T02:19:33.897Z,35.50
2018-10-17T02:22:03.041Z,38.43
2018-10-17T02:24:32.076Z,36.80
2018-10-17T02:27:02.206Z,43.20
2018-10-17T02:29:31.212Z,32.97
2018-10-17T02:32:00.415Z,40.23
2018-10-17T02:34:29.377Z,36.27
2018-10-17T02:36:58.368Z,32.87
2018-10-17T02:39:27.511Z,32.17
2018-10-17T02:41:57.146Z,34.87
2018-10-17T02:44:26.193Z,34.30
2018-10-17T02:46:55.248Z,36.97
2018-10-17T02:49:24.190Z,34.07
2018-10-17T02:51:53.158Z,34.70
2018-10-17T02:54:22.201Z,34.33
2018-10-17T02:56:51.321Z,35.43
2018-10-17T02:59:20.310Z,31.60
2018-10-17T03:01:49.286Z,29.80
2018-10-17T03:04:18.382Z,28.43
2018-10-17T03:06:47.742Z,31.67
2018-10-17T03:09:16.843Z,31.97
2018-10-17T03:11:45.891Z,32.93
2018-10-17T03:14:14.926Z,31.40
2018-10-17T03:16:44.025Z,33.20
2018-10-17T03:19:13.126Z,27.70
2018-10-17T03:21:42.058Z,33.70
2018-10-17T03:24:11.017Z,36.63
2018-10-17T03:26:40.091Z,33.47
2018-10-17T03:29:09.163Z,30.37
2018-10-17T03:31:39.291Z,40.13
2018-10-17T03:34:08.497Z,29.40
2018-10-17T03:36:37.996Z,42.10
2018-10-17T03:39:08.918Z,36.03
2018-10-17T03:41:38.330Z,38.70
2018-10-17T03:44:07.894Z,35.43
2018-10-17T03:46:36.933Z,33.87
2018-10-17T03:49:06.875Z,38.00
2018-10-17T03:51:35.985Z,31.97
2018-10-17T03:54:05.393Z,36.30
2018-10-17T03:56:34.546Z,37.10
2018-10-17T03:59:03.672Z,34.77
2018-10-17T04:01:32.641Z,40.67
2018-10-17T04:04:01.839Z,42.33
2018-10-17T04:06:31.069Z,35.03
2018-10-17T04:09:00.042Z,35.27
2018-10-17T04:11:29.170Z,35.07
2018-10-17T04:13:58.162Z,42.93
2018-10-17T04:16:27.514Z,38.73
2018-10-17T04:18:56.631Z,33.37
2018-10-17T04:21:25.658Z,37.90
2018-10-17T04:23:56.010Z,38.90
2018-10-17T04:26:25.006Z,42.57
2018-10-17T04:28:54.246Z,31.93
2018-10-17T04:31:23.208Z,41.40
2018-10-17T04:33:52.367Z,40.60
2018-10-17T04:36:21.429Z,33.60
2018-10-17T04:38:50.341Z,41.73
2018-10-17T04:41:19.493Z,33.40
2018-10-17T04:43:48.364Z,38.57
2018-10-17T04:46:17.830Z,33.83
2018-10-17T04:48:46.986Z,33.10
2018-10-17T04:51:16.241Z,41.23
2018-10-17T04:53:45.510Z,36.53
2018-10-17T04:56:14.746Z,36.97
2018-10-17T04:58:43.927Z,42.80
2018-10-17T05:01:13.095Z,36.47
2018-10-17T05:03:42.061Z,39.83
2018-10-17T05:06:11.085Z,42.00
2018-10-17T05:08:40.170Z,39.37
2018-10-17T05:11:09.401Z,38.97
2018-10-17T05:13:38.326Z,39.90
2018-10-17T05:16:07.366Z,32.70
2018-10-17T05:18:36.339Z,37.30
2018-10-17T05:21:05.443Z,33.13
2018-10-17T05:23:34.444Z,36.00
2018-10-17T05:26:03.447Z,40.40
2018-10-17T05:28:32.457Z,48.80
2018-10-17T05:31:01.575Z,39.30
2018-10-17T05:33:30.533Z,39.67
2018-10-17T05:35:59.567Z,45.73
2018-10-17T05:38:28.659Z,42.23
2018-10-17T05:40:57.705Z,52.93
2018-10-17T05:43:26.664Z,40.47
2018-10-17T05:45:55.643Z,39.00
2018-10-17T05:48:25.479Z,38.87
2018-10-17T05:50:54.574Z,34.60
2018-10-17T05:53:23.882Z,43.00
2018-10-17T05:55:54.064Z,35.60
2018-10-17T05:58:23.392Z,41.67
2018-10-17T06:00:52.366Z,47.27
2018-10-17T06:03:21.430Z,41.87
2018-10-17T06:05:50.636Z,53.57
2018-10-17T06:08:19.905Z,46.30
2018-10-17T06:10:48.938Z,50.43
2018-10-17T06:13:18.026Z,54.07
2018-10-17T06:15:47.013Z,50.00
2018-10-17T06:18:16.000Z,45.13
2018-10-17T06:20:45.026Z,50.13
2018-10-17T06:23:14.255Z,48.83
2018-10-17T06:25:43.470Z,50.13
2018-10-17T06:28:12.552Z,51.37
2018-10-17T06:30:41.675Z,46.83
2018-10-17T06:33:10.590Z,49.50
2018-10-17T06:35:39.592Z,44.80
2018-10-17T06:38:08.745Z,46.83
2018-10-17T06:40:38.019Z,52.13
2018-10-17T06:43:07.073Z,40.23
2018-10-17T06:45:36.296Z,50.10
2018-10-17T06:48:05.753Z,45.70
2018-10-17T06:50:34.917Z,44.73
2018-10-17T06:53:04.044Z,46.07
2018-10-17T06:55:33.058Z,43.57
2018-10-17T06:58:02.265Z,43.70
2018-10-17T07:00:31.464Z,63.93
2018-10-17T07:03:00.514Z,41.07
2018-10-17T07:05:30.697Z,36.07
2018-10-17T07:08:00.978Z,43.30
2018-10-17T07:10:30.307Z,54.90
2018-10-17T07:12:59.344Z,40.73
2018-10-17T07:15:28.482Z,48.40
2018-10-17T07:17:57.507Z,41.50
2018-10-17T07:20:26.538Z,41.23
2018-10-17T07:22:55.723Z,46.63
2018-10-17T07:25:24.827Z,51.83
2018-10-17T07:27:54.969Z,55.43
2018-10-17T07:30:24.233Z,44.57
2018-10-17T07:32:53.302Z,41.80
2018-10-17T07:35:22.682Z,36.97
2018-10-17T07:37:52.287Z,33.80
2018-10-17T07:40:21.521Z,38.93
2018-10-17T07:42:51.211Z,41.63
2018-10-17T07:45:20.482Z,43.23
2018-10-17T07:47:49.562Z,40.87
2018-10-17T07:50:18.662Z,52.33
2018-10-17T07:52:47.819Z,44.93
2018-10-17T07:55:17.074Z,45.80
2018-10-17T07:57:46.074Z,38.67
2018-10-17T08:00:15.078Z,40.77
2018-10-17T08:02:44.888Z,35.70
2018-10-17T08:05:14.231Z,43.23
2018-10-17T08:07:43.341Z,40.67
2018-10-17T08:10:13.438Z,43.20
2018-10-17T08:12:42.682Z,53.27
2018-10-17T08:15:12.156Z,50.37
2018-10-17T08:17:41.546Z,52.30
2018-10-17T08:20:11.801Z,45.60
2018-10-17T08:22:41.059Z,55.87
2018-10-17T08:25:11.386Z,43.30
2018-10-17T08:27:40.878Z,46.50
2018-10-17T08:30:10.522Z,50.03
2018-10-17T08:32:40.424Z,46.70
2018-10-17T08:35:09.585Z,42.20
2018-10-17T08:37:39.101Z,45.53
2018-10-17T08:40:07.786Z,43.20
2018-10-17T08:42:36.866Z,42.90
2018-10-17T08:45:06.054Z,40.47
2018-10-17T08:47:35.015Z,37.37
2018-10-17T08:50:04.087Z,40.53
2018-10-17T08:52:33.125Z,56.30
2018-10-17T08:55:02.146Z,51.27
2018-10-17T08:57:31.373Z,48.03
2018-10-17T09:00:00.502Z,56.17
2018-10-17T09:02:29.764Z,43.50
2018-10-17T09:04:59.023Z,49.73
2018-10-17T09:07:28.070Z,41.20
2018-10-17T09:09:57.173Z,47.20
2018-10-17T09:12:26.353Z,38.30
2018-10-17T09:14:55.593Z,41.53
2018-10-17T09:17:24.714Z,46.30
2018-10-17T09:19:54.028Z,42.63
2018-10-17T09:22:23.372Z,43.37
2018-10-17T09:24:52.269Z,49.20
2018-10-17T09:27:21.506Z,44.87
2018-10-17T09:29:50.618Z,52.23
2018-10-17T09:32:20.164Z,42.80
2018-10-17T09:34:49.593Z,46.60
2018-10-17T09:37:18.748Z,40.70
2018-10-17T09:39:47.930Z,43.20
2018-10-17T09:42:17.420Z,43.27
2018-10-17T09:44:46.494Z,46.53
2018-10-17T09:47:15.673Z,48.07
2018-10-17T09:49:44.701Z,48.13
2018-10-17T09:52:13.920Z,55.37
2018-10-17T09:54:44.049Z,46.33
2018-10-17T09:57:13.148Z,46.90
2018-10-17T09:59:42.327Z,40.50
2018-10-17T10:02:11.577Z,46.93
2018-10-17T10:04:40.720Z,45.40
2018-10-17T10:07:09.743Z,54.90
2018-10-17T10:09:38.907Z,50.33
2018-10-17T10:12:08.521Z,51.87
2018-10-17T10:14:37.573Z,46.57
2018-10-17T10:17:06.583Z,48.17
2018-10-17T10:19:35.614Z,48.07
2018-10-17T10:22:05.070Z,42.73
2018-10-17T10:24:34.351Z,49.50
2018-10-17T10:27:03.815Z,48.50
2018-10-17T10:29:32.905Z,50.97
2018-10-17T10:32:02.473Z,48.83
2018-10-17T10:34:31.532Z,49.40
2018-10-17T10:37:00.651Z,46.60
2018-10-17T10:39:29.743Z,51.10
2018-10-17T10:41:58.983Z,49.03
2018-10-17T10:44:28.042Z,46.10
2018-10-17T10:46:57.118Z,53.90
2018-10-17T10:49:26.253Z,41.50
2018-10-17T10:51:56.063Z,46.80
2018-10-17T10:54:25.320Z,51.27
2018-10-17T10:56:54.606Z,52.20
2018-10-17T10:59:23.757Z,51.67
2018-10-17T11:01:52.799Z,59.30
2018-10-17T11:04:22.095Z,53.17
2018-10-17T11:06:51.363Z,58.20
2018-10-17T11:09:20.383Z,55.17
2018-10-17T11:11:49.448Z,52.10
2018-10-17T11:14:18.769Z,52.07
2018-10-17T11:16:47.578Z,47.63
2018-10-17T11:19:16.701Z,55.63
2018-10-17T11:21:45.834Z,49.83
2018-10-17T11:24:15.004Z,48.50
2018-10-17T11:26:44.157Z,49.73
2018-10-17T11:29:13.335Z,52.93
2018-10-17T11:31:42.334Z,52.43
2018-10-17T11:34:11.848Z,47.40
2018-10-17T11:36:40.838Z,51.80
2018-10-17T11:39:10.557Z,58.90
2018-10-17T11:41:39.728Z,48.10
2018-10-17T11:44:08.949Z,49.00
2018-10-17T11:46:37.975Z,56.00
2018-10-17T11:49:07.309Z,50.10
2018-10-17T11:51:36.489Z,49.23
2018-10-17T11:54:06.097Z,46.90
2018-10-17T11:56:35.278Z,54.90
2018-10-17T11:59:05.053Z,54.50
2018-10-17T12:01:34.186Z,49.03
2018-10-17T12:04:03.864Z,53.90
2018-10-17T12:06:32.795Z,51.83
2018-10-17T12:09:01.787Z,54.87
2018-10-17T12:11:31.043Z,54.33
2018-10-17T12:14:01.232Z,53.57
2018-10-17T12:16:30.369Z,52.63
2018-10-17T12:18:59.628Z,57.07
2018-10-17T12:21:28.669Z,47.43
2018-10-17T12:23:57.794Z,65.67
2018-10-17T12:26:27.062Z,53.60
2018-10-17T12:28:56.277Z,52.90
2018-10-17T12:31:25.486Z,56.57
2018-10-17T12:33:54.614Z,59.80
2018-10-17T12:36:23.913Z,58.17
2018-10-17T12:38:53.142Z,60.70
2018-10-17T12:41:22.316Z,55.17
2018-10-17T12:43:51.495Z,56.97
2018-10-17T12:46:20.665Z,57.53
2018-10-17T12:48:49.860Z,51.03
2018-10-17T12:51:19.086Z,59.40
2018-10-17T12:53:48.261Z,67.23
2018-10-17T12:56:17.273Z,56.30
2018-10-17T12:58:46.276Z,51.90
2018-10-17T13:01:15.439Z,58.67
2018-10-17T13:03:44.760Z,62.30
2018-10-17T13:06:13.917Z,61.70
2018-10-17T13:08:43.177Z,68.10
2018-10-17T13:11:12.304Z,60.80
2018-10-17T13:13:41.453Z,59.63
2018-10-17T13:16:10.570Z,64.73
2018-10-17T13:18:39.629Z,63.53
2018-10-17T13:21:08.762Z,62.80
2018-10-17T13:23:37.854Z,57.20
2018-10-17T13:26:06.830Z,53.47
2018-10-17T13:28:36.075Z,62.67
2018-10-17T13:31:05.354Z,61.30
2018-10-17T13:33:34.522Z,54.20
2018-10-17T13:36:03.848Z,60.53
2018-10-17T13:38:33.451Z,62.57
2018-10-17T13:41:02.755Z,61.77
2018-10-17T13:43:31.723Z,53.90
2018-10-17T13:46:00.955Z,59.63
2018-10-17T13:48:30.096Z,55.13
2018-10-17T13:50:59.187Z,54.83
2018-10-17T13:53:28.579Z,55.67
2018-10-17T13:55:58.637Z,64.83
2018-10-17T13:58:28.123Z,50.83
2018-10-17T14:00:58.011Z,59.87
2018-10-17T14:03:27.087Z,57.23
2018-10-17T14:05:56.286Z,56.70
2018-10-17T14:08:25.442Z,54.73
2018-10-17T14:10:54.452Z,63.83
2018-10-17T14:13:23.701Z,65.67
2018-10-17T14:15:52.598Z,61.23
2018-10-17T14:18:21.653Z,62.13
2018-10-17T14:20:50.706Z,62.83
2018-10-17T14:23:19.813Z,69.13
2018-10-17T14:25:48.993Z,69.27
2018-10-17T14:28:18.010Z,70.97
2018-10-17T14:30:47.247Z,67.50
2018-10-17T14:33:17.558Z,62.90
2018-10-17T14:35:46.817Z,72.83
2018-10-17T14:38:16.924Z,78.10
2018-10-17T14:40:47.486Z,67.83
2018-10-17T14:43:16.788Z,65.57
2018-10-17T14:45:45.936Z,70.10
2018-10-17T14:48:16.083Z,70.87
2018-10-17T14:50:45.112Z,80.80
2018-10-17T14:53:14.599Z,70.83
2018-10-17T14:55:43.455Z,69.33
2018-10-17T14:58:12.559Z,69.20
2018-10-17T15:00:41.597Z,64.73
2018-10-17T15:03:10.837Z,69.83
2018-10-17T15:05:41.739Z,73.67
2018-10-17T15:08:10.849Z,72.53
2018-10-17T15:10:39.984Z,69.53
2018-10-17T15:13:09.068Z,71.03
2018-10-17T15:15:43.941Z,83.07
2018-10-17T15:18:13.836Z,78.30
2018-10-17T15:20:43.067Z,72.97
2018-10-17T15:23:12.657Z,73.90
2018-10-17T15:25:41.771Z,79.47
2018-10-17T15:28:10.967Z,74.13
2018-10-17T15:30:40.485Z,73.47
2018-10-17T15:33:09.700Z,71.43
2018-10-17T15:35:38.959Z,73.33
2018-10-17T15:38:08.338Z,75.50
2018-10-17T15:40:37.730Z,82.07
2018-10-17T15:43:06.882Z,82.73
2018-10-17T15:45:36.269Z,74.87
2018-10-17T15:48:05.716Z,73.10
2018-10-17T15:50:34.722Z,72.30
2018-10-17T15:53:04.092Z,80.63
2018-10-17T15:55:33.195Z,79.30
2018-10-17T15:58:03.979Z,79.07
2018-10-17T16:00:32.985Z,80.00
2018-10-17T16:03:03.018Z,88.13
2018-10-17T16:05:32.546Z,92.17
2018-10-17T16:08:01.958Z,80.33
2018-10-17T16:10:31.006Z,95.87
2018-10-17T16:13:01.583Z,91.77
2018-10-17T16:15:30.804Z,86.80
2018-10-17T16:17:59.935Z,89.60
2018-10-17T16:20:29.006Z,84.27
2018-10-17T16:22:58.251Z,74.93
2018-10-17T16:25:27.176Z,85.43
2018-10-17T16:27:56.339Z,83.53
2018-10-17T16:30:25.920Z,79.17
2018-10-17T16:32:55.100Z,69.77
2018-10-17T16:35:24.167Z,71.30
2018-10-17T16:37:53.384Z,68.67
2018-10-17T16:40:22.542Z,76.47
2018-10-17T16:42:51.572Z,68.57
2018-10-17T16:45:20.683Z,79.70
2018-10-17T16:47:50.068Z,77.93
2018-10-17T16:50:19.234Z,195.67
2018-10-17T16:52:48.393Z,149.03
2018-10-17T16:55:17.526Z,192.47
2018-10-17T16:57:46.822Z,151.47
2018-10-17T17:00:16.116Z,106.60
2018-10-17T17:02:45.150Z,78.33
2018-10-17T17:05:15.002Z,72.10
2018-10-17T17:07:44.168Z,84.43
2018-10-17T17:10:14.113Z,89.00
2018-10-17T17:12:43.415Z,83.53
2018-10-17T17:15:12.801Z,85.33
2018-10-17T17:17:41.779Z,72.03
2018-10-17T17:20:11.781Z,90.37
2018-10-17T17:22:41.391Z,81.13
2018-10-17T17:25:10.668Z,76.67
2018-10-17T17:27:40.117Z,75.93
2018-10-17T17:30:14.940Z,77.13
2018-10-17T17:32:44.297Z,75.17
2018-10-17T17:35:13.714Z,79.07
2018-10-17T17:37:43.441Z,101.30
2018-10-17T17:40:13.819Z,104.17
2018-10-17T17:42:43.002Z,90.83
2018-10-17T17:45:12.095Z,81.93
2018-10-17T17:47:41.131Z,87.40
2018-10-17T17:50:10.742Z,82.90
2018-10-17T17:52:40.135Z,97.90
2018-10-17T17:55:10.438Z,89.20
2018-10-17T17:57:39.646Z,85.33
2018-10-17T18:00:09.063Z,83.70
2018-10-17T18:02:40.712Z,81.20
2018-10-17T18:05:10.081Z,87.60
2018-10-17T18:07:39.415Z,88.83
2018-10-17T18:10:11.098Z,86.77
2018-10-17T18:12:40.755Z,90.67
2018-10-17T18:15:12.809Z,86.47
2018-10-17T18:17:45.897Z,86.50
2018-10-17T18:20:16.312Z,91.57
2018-10-17T18:22:45.791Z,96.13
2018-10-17T18:25:15.790Z,104.83
2018-10-17T18:27:45.768Z,90.37
2018-10-17T18:30:15.016Z,84.20
2018-10-17T18:32:44.306Z,98.90
2018-10-17T18:35:13.533Z,97.20
2018-10-17T18:37:42.746Z,91.57
2018-10-17T18:40:11.962Z,97.30
2018-10-17T18:42:40.957Z,99.83
2018-10-17T18:45:10.145Z,100.07
2018-10-17T18:47:39.460Z,96.90
2018-10-17T18:50:09.045Z,91.37
2018-10-17T18:52:38.185Z,102.23
2018-10-17T18:55:07.615Z,102.73
2018-10-17T18:57:36.774Z,102.70
2018-10-17T19:00:07.904Z,95.63
2018-10-17T19:02:37.031Z,119.37
2018-10-17T19:05:06.158Z,104.50
2018-10-17T19:07:35.318Z,100.13
2018-10-17T19:10:04.535Z,100.43
2018-10-17T19:12:33.699Z,107.67
2018-10-17T19:15:02.730Z,109.77
2018-10-17T19:17:31.794Z,115.63
2018-10-17T19:20:00.839Z,106.93
2018-10-17T19:22:29.957Z,106.00
2018-10-17T19:24:59.051Z,95.20
2018-10-17T19:27:28.069Z,108.63
2018-10-17T19:29:57.342Z,114.13
2018-10-17T19:32:26.435Z,108.27
2018-10-17T19:34:55.469Z,106.73
2018-10-17T19:37:24.620Z,105.30
2018-10-17T19:39:53.812Z,120.53
2018-10-17T19:42:22.990Z,112.17
2018-10-17T19:44:52.086Z,103.07
2018-10-17T19:47:21.225Z,107.13
2018-10-17T19:49:50.414Z,109.27
2018-10-17T19:52:19.493Z,109.93
2018-10-17T19:54:48.679Z,130.20
2018-10-17T19:57:17.890Z,102.50
2018-10-17T19:59:46.828Z,112.87
2018-10-17T20:02:16.179Z,108.37
2018-10-17T20:04:45.151Z,102.13
2018-10-17T20:07:14.316Z,107.17
2018-10-17T20:09:43.336Z,103.43
2018-10-17T20:12:12.610Z,101.67
2018-10-17T20:14:43.163Z,106.50
2018-10-17T20:17:13.649Z,96.70
2018-10-17T20:19:42.680Z,98.67
2018-10-17T20:22:12.375Z,97.07
2018-10-17T20:24:43.708Z,89.17
2018-10-17T20:27:13.136Z,93.17
2018-10-17T20:29:42.131Z,98.27
2018-10-17T20:32:13.701Z,88.80
2018-10-17T20:34:44.088Z,83.07
2018-10-17T20:37:15.296Z,87.10
2018-10-17T20:39:44.413Z,70.40
2018-10-17T20:42:13.530Z,80.40
2018-10-17T20:44:43.633Z,73.93
2018-10-17T20:47:12.693Z,69.87
2018-10-17T20:49:41.831Z,69.80
2018-10-17T20:52:10.864Z,69.23
2018-10-17T20:54:39.910Z,64.60
2018-10-17T20:57:08.915Z,74.00
2018-10-17T20:59:37.918Z,70.03
2018-10-17T21:02:07.049Z,62.57
2018-10-17T21:04:36.001Z,68.87
2018-10-17T21:07:05.511Z,60.87
2018-10-17T21:09:34.627Z,62.77
2018-10-17T21:12:03.690Z,60.10
2018-10-17T21:14:32.698Z,58.20
2018-10-17T21:17:01.735Z,57.97
2018-10-17T21:19:30.866Z,58.47
2018-10-17T21:21:59.925Z,59.57
2018-10-17T21:24:28.953Z,67.47
2018-10-17T21:26:58.100Z,59.13
2018-10-17T21:29:27.230Z,58.40
2018-10-17T21:31:56.407Z,58.03
2018-10-17T21:34:25.673Z,56.57
2018-10-17T21:36:54.663Z,56.97
2018-10-17T21:39:23.785Z,57.70
2018-10-17T21:41:52.846Z,51.10
2018-10-17T21:44:21.802Z,51.77
2018-10-17T21:46:51.027Z,56.30
2018-10-17T21:49:20.076Z,52.50
2018-10-17T21:51:49.133Z,54.17
2018-10-17T21:54:18.283Z,49.00
2018-10-17T21:56:47.531Z,54.07
2018-10-17T21:59:16.618Z,56.33
2018-10-17T22:01:45.732Z,55.67
2018-10-17T22:04:14.757Z,54.13
2018-10-17T22:06:43.774Z,49.90
2018-10-17T22:09:13.159Z,52.37
2018-10-17T22:11:42.338Z,52.20
2018-10-17T22:14:11.406Z,54.27
2018-10-17T22:16:46.070Z,63.60
2018-10-17T22:19:15.414Z,49.67
2018-10-17T22:21:44.266Z,55.83
2018-10-17T22:24:13.451Z,50.50
2018-10-17T22:26:42.681Z,51.80
2018-10-17T22:29:11.717Z,62.07
2018-10-17T22:31:40.674Z,54.33
2018-10-17T22:34:09.693Z,59.10
2018-10-17T22:36:38.879Z,49.87
2018-10-17T22:39:10.747Z,52.57
2018-10-17T22:41:41.143Z,56.53
2018-10-17T22:44:10.770Z,54.63
2018-10-17T22:46:39.906Z,52.70
2018-10-17T22:49:09.906Z,50.03
2018-10-17T22:51:39.585Z,71.47
2018-10-17T22:54:08.832Z,57.30
2018-10-17T22:56:38.667Z,53.70
2018-10-17T22:59:07.654Z,58.50
2018-10-17T23:01:37.268Z,56.63
2018-10-17T23:04:07.115Z,62.77
2018-10-17T23:06:36.117Z,56.80
2018-10-17T23:09:08.874Z,54.77
2018-10-17T23:11:38.262Z,51.93
2018-10-17T23:14:07.842Z,51.00
2018-10-17T23:16:37.091Z,54.90
2018-10-17T23:19:07.196Z,54.73
2018-10-17T23:21:36.310Z,51.93
2018-10-17T23:24:05.834Z,49.93
2018-10-17T23:26:34.963Z,49.70
2018-10-17T23:29:03.925Z,52.17
2018-10-17T23:31:33.002Z,63.47
2018-10-17T23:34:02.122Z,53.63
2018-10-17T23:36:31.130Z,50.83
2018-10-17T23:39:00.152Z,51.20
2018-10-17T23:41:29.361Z,55.27
2018-10-17T23:43:58.332Z,57.93
2018-10-17T23:46:27.395Z,60.97
2018-10-17T23:48:56.559Z,52.10
2018-10-17T23:51:25.606Z,52.90
2018-10-17T23:53:54.852Z,53.40
2018-10-17T23:56:23.851Z,51.53
2018-10-17T23:58:53.049Z,60.20
